createdAt,value
2023-05-05T00:02:37.686Z,7.55
2023-05-05T00:05:40.604Z,7.70
2023-05-05T00:08:43.147Z,7.64
2023-05-05T00:11:45.842Z,7.87
2023-05-05T00:14:48.394Z,7.80
2023-05-05T00:17:51.179Z,7.69
2023-05-05T00:20:53.912Z,7.56
2023-05-05T00:23:56.569Z,7.63
2023-05-05T00:26:59.306Z,7.78
2023-05-05T00:30:02.107Z,7.78
2023-05-05T00:33:04.817Z,7.82
2023-05-05T00:36:07.702Z,8.05
2023-05-05T00:39:10.975Z,8.11
2023-05-05T00:42:13.561Z,8.08
2023-05-05T00:45:17.006Z,7.85
2023-05-05T00:48:19.684Z,7.57
2023-05-05T00:51:22.966Z,7.28
2023-05-05T00:54:25.719Z,7.38
2023-05-05T00:57:28.664Z,7.60
2023-05-05T01:00:31.759Z,7.43
2023-05-05T01:03:37.353Z,7.23
2023-05-05T01:07:06.420Z,7.46
2023-05-05T01:10:41.287Z,7.44
2023-05-05T01:13:59.233Z,7.53
2023-05-05T01:17:10.524Z,7.48
2023-05-05T01:20:40.924Z,7.47
2023-05-05T01:24:19.894Z,7.46
2023-05-05T01:27:47.582Z,7.44
2023-05-05T01:31:09.499Z,7.50
2023-05-05T01:34:14.928Z,7.31
2023-05-05T01:37:32.513Z,7.31
2023-05-05T01:40:42.039Z,7.44
2023-05-05T01:43:47.630Z,7.45
2023-05-05T01:46:52.126Z,7.15
2023-05-05T01:49:54.661Z,7.16
2023-05-05T01:52:57.921Z,7.45
2023-05-05T01:56:01.528Z,7.44
2023-05-05T01:59:05.077Z,7.55
2023-05-05T02:02:10.583Z,7.48
2023-05-05T02:05:14.354Z,7.43
2023-05-05T02:08:17.651Z,7.50
2023-05-05T02:11:21.925Z,7.30
2023-05-05T02:14:26.759Z,7.06
2023-05-05T02:17:30.190Z,7.20
2023-05-05T02:20:33.424Z,7.10
2023-05-05T02:23:36.547Z,6.86
2023-05-05T02:26:40.814Z,6.95
2023-05-05T02:29:58.058Z,6.94
2023-05-05T02:33:09.484Z,6.75
2023-05-05T02:36:26.231Z,6.90
2023-05-05T02:39:47.377Z,6.84
2023-05-05T02:42:55.937Z,6.80
2023-05-05T02:46:03.969Z,6.97
2023-05-05T02:49:08.169Z,7.10
2023-05-05T02:52:12.359Z,7.13
2023-05-05T02:55:16.705Z,6.95
2023-05-05T02:58:29.344Z,6.83
2023-05-05T03:01:53.886Z,6.58
2023-05-05T03:05:11.119Z,6.52
2023-05-05T03:08:27.177Z,6.49
2023-05-05T03:11:36.268Z,6.61
2023-05-05T03:14:43.454Z,6.51
2023-05-05T03:17:50.632Z,6.53
2023-05-05T03:20:53.631Z,6.44
2023-05-05T03:23:58.403Z,6.81
2023-05-05T03:27:01.628Z,6.77
2023-05-05T03:30:09.822Z,6.57
2023-05-05T03:33:20.429Z,6.31
2023-05-05T03:36:23.128Z,6.14
2023-05-05T03:39:26.365Z,5.90
2023-05-05T03:42:30.117Z,5.94
2023-05-05T03:45:33.298Z,5.98
2023-05-05T03:48:36.163Z,5.94
2023-05-05T03:51:39.175Z,5.91
2023-05-05T03:54:42.623Z,6.01
2023-05-05T03:57:46.138Z,5.96
2023-05-05T04:00:48.761Z,5.92
2023-05-05T04:03:52.300Z,6.19
2023-05-05T04:06:56.036Z,6.23
2023-05-05T04:09:58.616Z,6.27
2023-05-05T04:13:01.582Z,6.39
2023-05-05T04:16:06.630Z,6.49
2023-05-05T04:19:09.374Z,6.48
2023-05-05T04:22:11.997Z,6.84
2023-05-05T04:25:14.993Z,7.08
2023-05-05T04:28:19.592Z,7.25
2023-05-05T04:31:23.825Z,7.36
2023-05-05T04:34:27.278Z,7.55
2023-05-05T04:37:30.436Z,7.50
2023-05-05T04:40:38.237Z,7.50
2023-05-05T04:43:41.622Z,7.85
2023-05-05T04:46:44.504Z,8.03
2023-05-05T04:49:47.198Z,8.04
2023-05-05T04:52:51.378Z,8.02
2023-05-05T04:55:55.326Z,8.12
2023-05-05T04:58:57.905Z,8.01
2023-05-05T05:02:00.892Z,8.38
2023-05-05T05:05:04.035Z,8.58
2023-05-05T05:08:06.820Z,8.80
2023-05-05T05:11:09.495Z,8.96
2023-05-05T05:14:12.583Z,9.02
2023-05-05T05:17:15.554Z,8.67
2023-05-05T05:20:19.206Z,8.85
2023-05-05T05:23:22.965Z,8.82
2023-05-05T05:26:25.752Z,8.98
2023-05-05T05:29:28.540Z,9.26
2023-05-05T05:32:32.891Z,9.41
2023-05-05T05:35:35.888Z,9.54
2023-05-05T05:38:39.450Z,9.25
2023-05-05T05:41:43.080Z,9.49
2023-05-05T05:44:46.243Z,9.45
2023-05-05T05:47:49.713Z,9.88
2023-05-05T05:50:52.858Z,9.97
2023-05-05T05:54:03.706Z,10.04
2023-05-05T05:57:07.104Z,10.22
2023-05-05T06:00:10.910Z,10.56
2023-05-05T06:03:38.171Z,10.35
2023-05-05T06:06:44.827Z,11.06
2023-05-05T06:09:48.239Z,11.18
2023-05-05T06:12:51.021Z,11.26
2023-05-05T06:15:54.415Z,11.14
2023-05-05T06:18:57.185Z,11.51
2023-05-05T06:22:00.465Z,11.24
2023-05-05T06:25:03.606Z,11.54
2023-05-05T06:28:06.393Z,11.85
2023-05-05T06:31:09.262Z,11.45
2023-05-05T06:34:12.282Z,11.93
2023-05-05T06:37:15.318Z,12.11
2023-05-05T06:40:18.510Z,11.74
2023-05-05T06:43:22.107Z,12.19
2023-05-05T06:46:30.242Z,11.97
2023-05-05T06:49:33.294Z,12.43
2023-05-05T06:52:36.249Z,12.58
2023-05-05T06:55:39.143Z,12.64
2023-05-05T06:58:42.429Z,12.86
2023-05-05T07:01:52.025Z,12.60
2023-05-05T07:04:55.700Z,12.84
2023-05-05T07:08:01.851Z,13.09
2023-05-05T07:11:04.786Z,12.87
2023-05-05T07:14:10.515Z,13.03
2023-05-05T07:17:13.460Z,13.12
2023-05-05T07:20:16.520Z,13.16
2023-05-05T07:23:19.257Z,13.37
2023-05-05T07:26:22.129Z,13.84
2023-05-05T07:29:25.038Z,13.93
2023-05-05T07:32:29.938Z,14.01
2023-05-05T07:35:32.758Z,14.24
2023-05-05T07:38:35.455Z,14.52
2023-05-05T07:41:38.178Z,14.50
2023-05-05T07:44:40.902Z,14.66
2023-05-05T07:47:43.952Z,14.74
2023-05-05T07:50:48.659Z,14.97
2023-05-05T07:53:51.650Z,14.60
2023-05-05T07:56:54.975Z,14.79
2023-05-05T07:59:59.046Z,15.06
2023-05-05T08:03:01.889Z,15.16
2023-05-05T08:06:09.640Z,15.47
2023-05-05T08:09:12.404Z,15.29
2023-05-05T08:12:15.493Z,15.63
2023-05-05T08:15:18.415Z,15.43
2023-05-05T08:18:21.325Z,15.27
2023-05-05T08:21:24.065Z,15.77
2023-05-05T08:24:27.521Z,15.67
2023-05-05T08:27:30.619Z,15.46
2023-05-05T08:30:33.349Z,15.83
2023-05-05T08:33:36.142Z,15.85
2023-05-05T08:36:39.133Z,16.30
2023-05-05T08:39:43.366Z,16.14
2023-05-05T08:42:47.002Z,16.19
2023-05-05T08:45:53.991Z,16.45
2023-05-05T08:48:57.890Z,16.35
2023-05-05T08:52:01.878Z,16.46
2023-05-05T08:55:25.722Z,16.60
2023-05-05T08:58:30.680Z,16.43
2023-05-05T09:01:34.159Z,16.90
2023-05-05T09:04:37.254Z,16.93
2023-05-05T09:07:44.245Z,17.25
2023-05-05T09:10:49.171Z,17.11
2023-05-05T09:13:51.954Z,17.22
2023-05-05T09:16:55.172Z,17.15
2023-05-05T09:20:04.894Z,17.22
2023-05-05T09:23:12.911Z,17.06
2023-05-05T09:26:15.879Z,17.30
2023-05-05T09:29:22.762Z,17.77
2023-05-05T09:32:26.320Z,17.79
2023-05-05T09:35:47.832Z,18.02
2023-05-05T09:39:08.952Z,18.18
2023-05-05T09:42:20.972Z,17.94
2023-05-05T09:45:23.700Z,18.31
2023-05-05T09:48:31.567Z,18.12
2023-05-05T09:51:34.813Z,18.19
2023-05-05T09:54:37.794Z,18.36
2023-05-05T09:57:41.070Z,18.23
2023-05-05T10:00:44.313Z,18.53
2023-05-05T10:03:53.874Z,18.87
2023-05-05T10:06:58.127Z,18.77
2023-05-05T10:10:01.001Z,18.72
2023-05-05T10:13:04.137Z,18.92
2023-05-05T10:16:11.616Z,18.67
2023-05-05T10:19:16.551Z,18.43
2023-05-05T10:22:22.918Z,19.02
2023-05-05T10:25:33.771Z,18.72
2023-05-05T10:32:56.931Z,19.30
2023-05-05T10:36:00.888Z,19.36
2023-05-05T10:39:03.556Z,19.40
2023-05-05T10:42:06.547Z,19.71
2023-05-05T10:45:09.818Z,19.72
2023-05-05T10:48:19.484Z,19.85
2023-05-05T10:51:40.330Z,20.09
2023-05-05T10:54:55.916Z,20.27
2023-05-05T10:57:58.595Z,20.22
2023-05-05T11:01:01.408Z,20.47
2023-05-05T11:04:20.394Z,20.44
2023-05-05T11:07:24.089Z,20.09
2023-05-05T11:10:27.068Z,20.21
2023-05-05T11:13:30.291Z,20.32
2023-05-05T11:16:48.006Z,20.76
2023-05-05T11:19:52.396Z,20.72
2023-05-05T11:23:04.292Z,20.95
2023-05-05T11:26:07.362Z,20.98
2023-05-05T11:29:10.011Z,21.19
2023-05-05T11:32:16.080Z,21.47
2023-05-05T11:35:18.948Z,21.38
2023-05-05T11:38:43.244Z,21.66
2023-05-05T11:42:10.996Z,21.67
2023-05-05T11:45:24.099Z,21.60
2023-05-05T11:48:27.498Z,21.93
2023-05-05T11:51:31.112Z,22.11
2023-05-05T11:54:36.807Z,22.04
2023-05-05T11:57:39.633Z,21.38
2023-05-05T12:00:42.938Z,21.63
2023-05-05T12:03:46.280Z,22.01
2023-05-05T12:06:49.306Z,21.88
2023-05-05T12:09:52.359Z,21.76
2023-05-05T12:12:55.657Z,22.13
2023-05-05T12:16:14.415Z,22.44
2023-05-05T12:19:17.214Z,22.76
2023-05-05T12:22:20.810Z,22.43
2023-05-05T12:25:23.817Z,22.59
2023-05-05T12:28:42.628Z,22.82
2023-05-05T12:31:45.458Z,22.73
2023-05-05T12:34:49.287Z,22.88
2023-05-05T12:37:52.022Z,22.98
2023-05-05T12:40:56.155Z,23.30
2023-05-05T12:43:59.724Z,23.57
2023-05-05T12:47:02.560Z,23.84
2023-05-05T12:50:06.010Z,23.65
2023-05-05T12:53:09.203Z,22.93
2023-05-05T12:56:34.851Z,22.95
2023-05-05T12:59:37.810Z,23.28
2023-05-05T13:02:40.661Z,23.90
2023-05-05T13:05:43.578Z,24.51
2023-05-05T13:08:46.373Z,24.43
2023-05-05T13:11:49.252Z,24.49
2023-05-05T13:14:51.975Z,24.71
2023-05-05T13:18:01.740Z,25.09
2023-05-05T13:21:04.752Z,24.97
2023-05-05T13:24:23.482Z,25.02
2023-05-05T13:27:28.736Z,27.18
2023-05-05T13:30:31.466Z,27.64
2023-05-05T13:33:35.235Z,28.17
2023-05-05T13:36:38.131Z,29.97
2023-05-05T13:39:41.121Z,30.36
2023-05-05T13:42:44.271Z,30.19
2023-05-05T13:45:47.160Z,31.20
2023-05-05T13:48:52.486Z,31.64
2023-05-05T13:51:59.297Z,31.72
2023-05-05T13:55:01.970Z,31.27
2023-05-05T13:58:04.810Z,30.55
2023-05-05T14:01:07.766Z,30.80
2023-05-05T14:04:10.881Z,31.20
2023-05-05T14:07:13.911Z,31.33
2023-05-05T14:10:16.839Z,30.88
2023-05-05T14:13:21.954Z,30.39
2023-05-05T14:16:25.111Z,31.71
2023-05-05T14:19:28.180Z,32.48
2023-05-05T14:22:31.358Z,31.79
2023-05-05T14:25:34.323Z,32.51
2023-05-05T14:28:37.231Z,33.31
2023-05-05T14:31:40.266Z,32.93
2023-05-05T14:34:43.077Z,33.53
2023-05-05T14:37:45.901Z,33.67
2023-05-05T14:40:48.742Z,33.68
2023-05-05T14:43:51.453Z,33.48
2023-05-05T14:46:54.553Z,33.65
2023-05-05T14:49:57.265Z,33.57
2023-05-05T14:53:00.149Z,34.56
2023-05-05T14:56:03.035Z,34.59
2023-05-05T14:59:05.996Z,33.90
2023-05-05T15:02:08.854Z,33.73
2023-05-05T15:05:12.086Z,33.22
2023-05-05T15:08:15.571Z,33.09
2023-05-05T15:11:18.463Z,33.42
2023-05-05T15:14:21.349Z,33.33
2023-05-05T15:17:24.159Z,33.22
2023-05-05T15:20:27.046Z,31.29
2023-05-05T15:23:29.993Z,29.76
2023-05-05T15:26:32.993Z,31.14
2023-05-05T15:29:35.777Z,31.62
2023-05-05T15:32:38.802Z,32.80
2023-05-05T15:35:41.763Z,33.44
2023-05-05T15:38:44.639Z,32.32
2023-05-05T15:41:47.443Z,32.55
2023-05-05T15:44:50.745Z,32.96
2023-05-05T15:47:54.104Z,31.68
2023-05-05T15:50:59.861Z,30.88
2023-05-05T15:54:02.748Z,31.16
2023-05-05T15:57:05.645Z,32.16
2023-05-05T16:00:16.038Z,32.72
2023-05-05T16:03:21.148Z,33.40
2023-05-05T16:06:27.495Z,33.87
2023-05-05T16:09:30.536Z,33.99
2023-05-05T16:12:33.527Z,33.23
2023-05-05T16:15:36.340Z,31.91
2023-05-05T16:18:39.079Z,31.02
2023-05-05T16:21:41.926Z,29.34
2023-05-05T16:24:44.923Z,29.93
2023-05-05T16:27:47.786Z,30.17
2023-05-05T16:30:50.530Z,30.86
2023-05-05T16:33:53.588Z,30.57
2023-05-05T16:36:56.806Z,30.81
2023-05-05T16:40:01.417Z,30.36
2023-05-05T16:43:07.622Z,29.85
2023-05-05T16:46:10.457Z,29.41
2023-05-05T16:49:13.386Z,29.62
2023-05-05T16:52:16.312Z,28.89
2023-05-05T16:55:19.370Z,29.19
2023-05-05T16:58:25.476Z,28.38
2023-05-05T17:01:28.630Z,28.84
2023-05-05T17:04:31.268Z,28.41
2023-05-05T17:07:33.916Z,28.34
2023-05-05T17:10:36.930Z,28.19
2023-05-05T17:13:39.581Z,27.42
2023-05-05T17:16:42.549Z,26.54
2023-05-05T17:19:45.534Z,26.42
2023-05-05T17:22:48.409Z,25.99
2023-05-05T17:25:51.703Z,25.59
2023-05-05T17:28:54.472Z,24.52
2023-05-05T17:31:57.264Z,23.50
2023-05-05T17:34:59.973Z,22.74
2023-05-05T17:38:02.810Z,22.15
2023-05-05T17:41:06.534Z,21.23
2023-05-05T17:44:09.288Z,20.98
2023-05-05T17:47:11.993Z,20.04
2023-05-05T17:50:14.706Z,19.51
2023-05-05T17:53:17.435Z,18.83
2023-05-05T17:56:20.352Z,18.39
2023-05-05T17:59:23.273Z,17.57
2023-05-05T18:02:26.287Z,17.66
2023-05-05T18:05:29.998Z,17.46
2023-05-05T18:08:32.681Z,16.89
2023-05-05T18:11:35.402Z,16.86
2023-05-05T18:14:38.083Z,16.60
2023-05-05T18:17:40.793Z,16.78
2023-05-05T18:20:44.490Z,16.46
2023-05-05T18:23:47.226Z,16.10
2023-05-05T18:26:51.211Z,15.86
2023-05-05T18:29:54.125Z,15.77
2023-05-05T18:32:56.957Z,15.83
2023-05-05T18:35:59.776Z,15.22
2023-05-05T18:39:02.718Z,14.81
2023-05-05T18:42:05.593Z,14.43
2023-05-05T18:45:09.273Z,14.71
2023-05-05T18:48:12.229Z,14.42
2023-05-05T18:51:15.048Z,13.93
2023-05-05T18:54:17.898Z,14.08
2023-05-05T18:57:21.367Z,13.68
2023-05-05T19:00:24.589Z,13.48
2023-05-05T19:03:27.317Z,13.86
2023-05-05T19:06:30.247Z,13.58
2023-05-05T19:09:32.942Z,13.17
2023-05-05T19:12:36.468Z,12.98
2023-05-05T19:15:39.226Z,12.87
2023-05-05T19:18:42.034Z,12.50
2023-05-05T19:21:45.149Z,12.54
2023-05-05T19:24:47.886Z,12.47
2023-05-05T19:27:50.703Z,12.37
2023-05-05T19:30:53.545Z,12.31
2023-05-05T19:34:01.362Z,12.29
2023-05-05T19:37:04.084Z,12.24
2023-05-05T19:40:07.555Z,11.95
2023-05-05T19:43:10.515Z,11.98
2023-05-05T19:46:14.642Z,11.94
2023-05-05T19:49:17.487Z,11.72
2023-05-05T19:52:22.728Z,12.00
2023-05-05T19:55:25.922Z,12.00
2023-05-05T19:58:28.861Z,11.92
2023-05-05T20:01:33.099Z,11.97
2023-05-05T20:04:36.199Z,11.60
2023-05-05T20:07:38.926Z,11.66
2023-05-05T20:10:41.772Z,11.54
2023-05-05T20:13:45.055Z,11.37
2023-05-05T20:16:48.581Z,11.31
2023-05-05T20:19:51.654Z,11.37
2023-05-05T20:22:54.409Z,11.22
2023-05-05T20:25:57.497Z,11.27
2023-05-05T20:29:00.306Z,11.16
2023-05-05T20:32:03.304Z,10.97
2023-05-05T20:35:06.597Z,11.14
2023-05-05T20:38:09.944Z,10.79
2023-05-05T20:41:12.976Z,10.42
2023-05-05T20:44:15.819Z,10.36
2023-05-05T20:47:18.643Z,10.51
2023-05-05T20:50:21.588Z,10.43
2023-05-05T20:53:25.569Z,10.36
2023-05-05T20:56:28.438Z,10.40
2023-05-05T20:59:32.608Z,10.29
2023-05-05T21:02:35.747Z,9.99
2023-05-05T21:05:40.215Z,9.97
2023-05-05T21:08:42.984Z,10.23
2023-05-05T21:11:45.986Z,10.32
2023-05-05T21:14:48.848Z,9.99
2023-05-05T21:17:51.895Z,9.97
2023-05-05T21:20:54.720Z,9.79
2023-05-05T21:23:58.225Z,9.78
2023-05-05T21:27:01.133Z,9.88
2023-05-05T21:30:07.750Z,9.99
2023-05-05T21:33:12.326Z,9.75
2023-05-05T21:36:17.636Z,9.75
2023-05-05T21:39:20.410Z,9.70
2023-05-05T21:42:23.192Z,9.53
2023-05-05T21:45:26.036Z,9.62
2023-05-05T21:48:28.945Z,9.46
2023-05-05T21:51:31.788Z,9.67
2023-05-05T21:54:34.544Z,9.46
2023-05-05T21:57:37.369Z,9.50
2023-05-05T22:00:41.688Z,9.41
2023-05-05T22:03:44.552Z,9.45
2023-05-05T22:06:47.370Z,9.30
2023-05-05T22:09:50.205Z,9.19
2023-05-05T22:12:53.065Z,9.18
2023-05-05T22:15:55.899Z,8.93
2023-05-05T22:18:59.114Z,9.00
2023-05-05T22:22:02.872Z,8.98
2023-05-05T22:25:06.347Z,9.15
2023-05-05T22:28:11.575Z,9.04
2023-05-05T22:31:14.467Z,8.91
2023-05-05T22:34:18.869Z,8.97
2023-05-05T22:37:21.668Z,8.86
2023-05-05T22:40:24.449Z,8.81
2023-05-05T22:43:27.264Z,8.77
2023-05-05T22:46:30.391Z,8.67
2023-05-05T22:49:33.485Z,8.89
2023-05-05T22:52:36.768Z,8.68
2023-05-05T22:55:39.669Z,8.35
2023-05-05T22:58:42.535Z,8.46
2023-05-05T23:01:45.299Z,8.53
2023-05-05T23:04:48.264Z,8.55
2023-05-05T23:07:51.251Z,8.38
2023-05-05T23:10:54.159Z,8.28
2023-05-05T23:13:57.275Z,8.02
2023-05-05T23:17:00.266Z,8.25
2023-05-05T23:20:04.439Z,8.39
2023-05-05T23:23:07.292Z,8.38
2023-05-05T23:26:10.118Z,8.47
2023-05-05T23:29:12.908Z,8.58
2023-05-05T23:32:15.928Z,8.44
2023-05-05T23:35:19.135Z,8.46
2023-05-05T23:38:22.011Z,8.39
2023-05-05T23:41:24.924Z,8.69
2023-05-05T23:44:27.895Z,8.46
2023-05-05T23:47:30.799Z,8.95
2023-05-05T23:50:33.592Z,8.34
2023-05-05T23:53:36.421Z,8.52
2023-05-05T23:56:40.880Z,8.57
2023-05-05T23:59:43.692Z,8.49
